createdAt,value
2023-06-29T00:01:04.723Z,28.59
2023-06-29T00:03:33.307Z,29.09
2023-06-29T00:06:01.282Z,28.71
2023-06-29T00:08:30.050Z,27.88
2023-06-29T00:10:59.118Z,29.02
2023-06-29T00:13:26.758Z,28.75
2023-06-29T00:15:54.424Z,28.47
2023-06-29T00:18:22.100Z,28.76
2023-06-29T00:20:52.517Z,28.13
2023-06-29T00:23:20.426Z,29.01
2023-06-29T00:25:48.318Z,28.58
2023-06-29T00:28:17.703Z,28.11
2023-06-29T00:30:45.378Z,28.43
2023-06-29T00:33:14.197Z,28.43
2023-06-29T00:35:42.151Z,29.15
2023-06-29T00:38:09.958Z,28.85
2023-06-29T00:40:37.621Z,28.91
2023-06-29T00:43:05.264Z,28.80
2023-06-29T00:45:34.742Z,28.45
2023-06-29T00:48:02.710Z,28.35
2023-06-29T00:50:31.047Z,29.10
2023-06-29T00:52:59.286Z,28.89
2023-06-29T00:55:27.152Z,29.05
2023-06-29T00:57:54.886Z,28.80
2023-06-29T01:00:22.562Z,28.61
2023-06-29T01:02:52.538Z,29.10
2023-06-29T01:09:06.886Z,28.18
2023-06-29T01:11:35.074Z,28.36
2023-06-29T01:14:05.509Z,28.92
2023-06-29T01:16:34.446Z,29.51
2023-06-29T01:19:06.477Z,29.00
2023-06-29T01:21:38.743Z,29.10
2023-06-29T01:24:07.667Z,29.47
2023-06-29T01:26:39.749Z,29.29
2023-06-29T01:29:07.402Z,28.05
2023-06-29T01:31:35.086Z,28.43
2023-06-29T01:34:02.950Z,28.58
2023-06-29T01:36:33.978Z,29.24
2023-06-29T01:39:04.873Z,29.14
2023-06-29T01:41:34.700Z,28.46
2023-06-29T01:44:05.233Z,29.52
2023-06-29T01:46:33.661Z,28.78
2023-06-29T01:49:01.690Z,28.86
2023-06-29T01:51:29.598Z,29.28
2023-06-29T01:53:57.307Z,27.67
2023-06-29T01:56:24.954Z,28.17
2023-06-29T01:58:52.581Z,27.43
2023-06-29T02:01:21.665Z,27.65
2023-06-29T02:03:49.931Z,27.70
2023-06-29T02:06:17.662Z,28.15
2023-06-29T02:08:45.985Z,28.00
2023-06-29T02:11:13.974Z,28.84
2023-06-29T02:13:41.716Z,28.04
2023-06-29T02:16:09.425Z,28.84
2023-06-29T02:18:38.485Z,27.59
2023-06-29T02:21:06.560Z,28.08
2023-06-29T02:23:34.194Z,28.61
2023-06-29T02:26:02.084Z,29.16
2023-06-29T02:28:29.991Z,28.85
2023-06-29T02:30:57.631Z,28.66
2023-06-29T02:33:25.322Z,28.03
2023-06-29T02:35:54.327Z,28.45
2023-06-29T02:38:21.985Z,28.45
2023-06-29T02:40:49.602Z,28.73
2023-06-29T02:43:17.286Z,28.40
2023-06-29T02:45:45.405Z,28.19
2023-06-29T02:48:13.921Z,29.10
2023-06-29T02:50:41.539Z,28.88
2023-06-29T02:53:12.280Z,29.50
2023-06-29T02:55:39.978Z,28.35
2023-06-29T02:58:07.607Z,28.03
2023-06-29T03:00:35.233Z,29.23
2023-06-29T03:03:03.213Z,27.54
2023-06-29T03:05:30.958Z,28.55
2023-06-29T03:07:58.635Z,29.05
2023-06-29T03:10:28.126Z,29.03
2023-06-29T03:12:56.256Z,28.95
2023-06-29T03:15:23.888Z,29.72
2023-06-29T03:17:51.611Z,29.30
2023-06-29T03:20:19.414Z,27.72
2023-06-29T03:22:47.083Z,28.82
2023-06-29T03:25:14.688Z,28.32
2023-06-29T03:27:44.012Z,28.64
2023-06-29T03:30:12.640Z,28.42
2023-06-29T03:32:40.254Z,28.01
2023-06-29T03:35:08.712Z,27.01
2023-06-29T03:37:36.382Z,28.34
2023-06-29T03:40:04.016Z,28.54
2023-06-29T03:42:32.032Z,28.24
2023-06-29T03:45:01.201Z,28.78
2023-06-29T03:47:28.953Z,28.95
2023-06-29T03:49:56.671Z,29.09
2023-06-29T03:52:24.343Z,28.61
2023-06-29T03:54:52.064Z,29.18
2023-06-29T03:57:19.743Z,28.48
2023-06-29T03:59:47.405Z,29.16
2023-06-29T04:02:16.679Z,28.99
2023-06-29T04:04:45.025Z,28.44
2023-06-29T04:07:12.695Z,28.16
2023-06-29T04:09:40.343Z,28.85
2023-06-29T04:12:08.813Z,28.74
2023-06-29T04:14:36.524Z,29.69
2023-06-29T04:17:04.324Z,27.96
2023-06-29T04:19:34.068Z,29.26
2023-06-29T04:22:01.922Z,28.94
2023-06-29T04:24:29.571Z,29.67
2023-06-29T04:26:57.401Z,28.76
2023-06-29T04:32:00.345Z,29.68
2023-06-29T04:34:28.039Z,29.46
2023-06-29T04:36:57.886Z,29.96
2023-06-29T04:39:25.672Z,28.99
2023-06-29T04:42:02.303Z,28.75
2023-06-29T04:44:33.910Z,29.22
2023-06-29T04:47:02.270Z,29.73
2023-06-29T04:49:32.972Z,31.18
2023-06-29T04:52:02.253Z,30.00
2023-06-29T04:54:30.207Z,31.13
2023-06-29T04:56:58.102Z,31.22
2023-06-29T04:59:27.080Z,31.77
2023-06-29T05:01:55.086Z,30.91
2023-06-29T05:04:23.247Z,31.74
2023-06-29T05:06:51.002Z,32.76
2023-06-29T05:09:20.658Z,32.84
2023-06-29T05:11:48.506Z,32.46
2023-06-29T05:14:16.449Z,31.77
2023-06-29T05:16:44.267Z,31.18
2023-06-29T05:19:12.060Z,31.61
2023-06-29T05:21:39.978Z,32.00
2023-06-29T05:24:08.429Z,31.54
2023-06-29T05:26:37.546Z,31.98
2023-06-29T05:29:06.351Z,32.95
2023-06-29T05:31:34.682Z,30.55
2023-06-29T05:34:02.629Z,30.97
2023-06-29T05:36:31.018Z,32.11
2023-06-29T05:38:59.056Z,31.35
2023-06-29T05:41:27.033Z,31.50
2023-06-29T05:43:56.153Z,31.01
2023-06-29T05:46:24.151Z,31.25
2023-06-29T05:48:51.929Z,30.92
2023-06-29T05:51:19.782Z,32.00
2023-06-29T05:53:47.694Z,31.81
2023-06-29T05:56:15.726Z,31.06
2023-06-29T05:58:43.614Z,32.15
2023-06-29T06:01:14.122Z,32.81
2023-06-29T06:03:42.435Z,32.17
2023-06-29T06:06:11.035Z,32.00
2023-06-29T06:08:39.016Z,32.69
2023-06-29T06:11:06.739Z,30.89
2023-06-29T06:13:34.513Z,31.98
2023-06-29T06:16:02.447Z,31.94
2023-06-29T06:18:31.539Z,32.03
2023-06-29T06:20:59.210Z,31.99
2023-06-29T06:23:26.983Z,31.93
2023-06-29T06:25:54.784Z,31.37
2023-06-29T06:28:22.670Z,31.51
2023-06-29T06:30:51.781Z,32.66
2023-06-29T06:33:21.263Z,32.22
2023-06-29T06:35:50.440Z,32.58
2023-06-29T06:38:18.631Z,32.58
2023-06-29T06:40:46.841Z,31.51
2023-06-29T06:43:16.383Z,31.99
2023-06-29T06:45:44.038Z,32.32
2023-06-29T06:48:12.251Z,32.15
2023-06-29T06:50:40.708Z,31.03
2023-06-29T06:53:09.920Z,32.39
2023-06-29T06:55:37.723Z,31.53
2023-06-29T06:58:05.480Z,31.82
2023-06-29T07:00:33.182Z,31.96
2023-06-29T07:03:01.156Z,31.37
2023-06-29T07:05:29.445Z,32.40
2023-06-29T07:07:57.141Z,32.09
2023-06-29T07:10:26.309Z,31.68
2023-06-29T07:12:54.069Z,31.92
2023-06-29T07:15:21.755Z,32.57
2023-06-29T07:17:58.767Z,32.79
2023-06-29T07:25:30.024Z,32.95
2023-06-29T07:27:58.233Z,31.79
2023-06-29T07:30:26.350Z,33.08
2023-06-29T07:32:54.293Z,33.92
2023-06-29T07:35:22.181Z,32.16
2023-06-29T07:37:49.878Z,32.52
2023-06-29T07:40:17.585Z,33.36
2023-06-29T07:42:46.831Z,33.39
2023-06-29T07:45:14.879Z,32.67
2023-06-29T07:47:42.949Z,32.94
2023-06-29T07:50:11.893Z,33.46
2023-06-29T07:52:39.671Z,32.45
2023-06-29T07:55:07.819Z,33.73
2023-06-29T08:00:15.838Z,34.03
2023-06-29T08:02:44.077Z,34.22
2023-06-29T08:07:43.593Z,34.59
2023-06-29T08:10:12.376Z,34.20
2023-06-29T08:12:40.413Z,33.74
2023-06-29T08:15:09.193Z,34.02
2023-06-29T08:17:44.455Z,34.28
2023-06-29T08:20:13.762Z,34.99
2023-06-29T08:22:44.177Z,35.83
2023-06-29T08:25:11.936Z,34.10
2023-06-29T08:27:40.801Z,34.25
2023-06-29T08:30:09.592Z,34.06
2023-06-29T08:32:37.349Z,35.51
2023-06-29T08:35:08.046Z,34.84
2023-06-29T08:37:35.983Z,35.01
2023-06-29T08:40:07.233Z,34.65
2023-06-29T08:42:35.058Z,34.39
2023-06-29T08:45:02.942Z,35.50
2023-06-29T08:47:33.171Z,34.56
2023-06-29T08:50:04.071Z,34.09
2023-06-29T08:52:35.346Z,34.48
2023-06-29T08:55:04.537Z,33.58
2023-06-29T08:57:33.490Z,34.43
2023-06-29T09:00:01.557Z,33.08
2023-06-29T09:02:30.097Z,33.05
2023-06-29T09:04:59.640Z,33.68
2023-06-29T09:07:27.718Z,33.00
2023-06-29T09:09:56.902Z,33.59
2023-06-29T09:12:25.177Z,32.66
2023-06-29T09:14:53.317Z,34.49
2023-06-29T09:17:23.252Z,33.80
2023-06-29T09:19:55.144Z,34.09
2023-06-29T09:22:23.608Z,34.60
2023-06-29T09:25:02.932Z,32.61
2023-06-29T09:27:38.685Z,32.80
2023-06-29T09:30:07.661Z,34.52
2023-06-29T09:32:38.657Z,31.74
2023-06-29T09:35:09.109Z,33.93
2023-06-29T09:37:37.840Z,32.48
2023-06-29T09:40:10.941Z,34.06
2023-06-29T09:42:42.083Z,34.38
2023-06-29T09:45:12.559Z,34.40
2023-06-29T09:50:19.947Z,34.90
2023-06-29T09:52:49.444Z,34.90
2023-06-29T09:55:41.568Z,34.54
2023-06-29T09:58:11.586Z,33.71
2023-06-29T10:00:40.582Z,34.02
2023-06-29T10:03:08.851Z,35.44
2023-06-29T10:05:37.080Z,33.54
2023-06-29T10:08:06.737Z,32.96
2023-06-29T10:10:35.810Z,32.71
2023-06-29T10:13:05.852Z,32.40
2023-06-29T10:15:37.400Z,30.89
2023-06-29T10:18:09.138Z,32.58
2023-06-29T10:20:37.762Z,33.01
2023-06-29T10:23:06.721Z,33.00
2023-06-29T10:25:36.408Z,32.16
2023-06-29T10:28:04.737Z,30.75
2023-06-29T10:30:47.753Z,31.86
2023-06-29T10:33:17.129Z,32.41
2023-06-29T10:35:53.641Z,32.65
2023-06-29T10:38:21.329Z,32.96
2023-06-29T10:40:49.674Z,32.51
2023-06-29T10:43:19.184Z,31.86
2023-06-29T10:45:48.309Z,33.52
2023-06-29T10:48:31.353Z,31.67
2023-06-29T10:51:08.212Z,31.39
2023-06-29T10:53:36.761Z,31.33
2023-06-29T10:56:04.862Z,31.81
2023-06-29T10:58:38.665Z,32.13
2023-06-29T11:01:21.608Z,32.55
2023-06-29T11:03:49.459Z,30.39
2023-06-29T11:09:13.064Z,31.55
2023-06-29T11:11:41.145Z,30.45
2023-06-29T11:14:15.524Z,29.61
2023-06-29T11:16:44.701Z,29.54
2023-06-29T11:19:13.708Z,32.16
2023-06-29T11:21:42.890Z,32.19
2023-06-29T11:24:10.957Z,31.26
2023-06-29T11:26:38.640Z,31.79
2023-06-29T11:29:08.523Z,29.84
2023-06-29T11:31:36.434Z,30.58
2023-06-29T11:34:07.565Z,32.55
2023-06-29T11:36:37.492Z,32.32
2023-06-29T11:39:08.709Z,32.37
2023-06-29T11:41:37.078Z,32.51
2023-06-29T11:44:05.218Z,31.97
2023-06-29T11:46:36.228Z,31.70
2023-06-29T11:49:05.470Z,32.51
2023-06-29T11:51:35.558Z,32.43
2023-06-29T11:54:03.516Z,33.83
2023-06-29T11:56:36.499Z,32.87
2023-06-29T11:59:08.763Z,32.86
2023-06-29T12:01:37.339Z,33.82
2023-06-29T12:04:06.281Z,33.86
2023-06-29T12:06:36.324Z,34.27
2023-06-29T12:09:12.382Z,34.80
2023-06-29T12:11:40.960Z,34.68
2023-06-29T12:14:10.797Z,34.42
2023-06-29T12:22:42.090Z,35.04
2023-06-29T12:25:12.015Z,35.45
2023-06-29T12:27:39.837Z,36.11
2023-06-29T12:30:08.695Z,36.31
2023-06-29T12:32:36.387Z,36.99
2023-06-29T12:35:04.628Z,37.93
2023-06-29T12:37:32.599Z,37.25
2023-06-29T12:40:01.682Z,37.16
2023-06-29T12:42:29.363Z,37.77
2023-06-29T12:44:57.322Z,37.42
2023-06-29T12:47:25.149Z,37.25
2023-06-29T12:49:53.154Z,37.72
2023-06-29T12:52:20.907Z,37.36
2023-06-29T12:54:53.275Z,37.08
2023-06-29T12:57:26.946Z,37.04
2023-06-29T12:59:55.319Z,35.23
2023-06-29T13:02:23.627Z,35.24
2023-06-29T13:04:51.516Z,36.02
2023-06-29T13:07:20.852Z,34.98
2023-06-29T13:09:49.921Z,34.49
2023-06-29T13:12:17.586Z,34.84
2023-06-29T13:14:47.859Z,35.84
2023-06-29T13:17:16.239Z,35.30
2023-06-29T13:19:46.416Z,34.00
2023-06-29T13:22:14.085Z,34.43
2023-06-29T13:24:41.978Z,34.02
2023-06-29T13:27:09.830Z,34.67
2023-06-29T13:29:37.706Z,33.97
2023-06-29T13:32:07.565Z,34.95
2023-06-29T13:34:35.541Z,34.47
2023-06-29T13:37:03.595Z,34.60
2023-06-29T13:39:31.488Z,33.86
2023-06-29T13:41:59.182Z,34.21
2023-06-29T13:44:27.404Z,33.25
2023-06-29T13:46:55.339Z,33.01
2023-06-29T13:49:24.403Z,34.16
2023-06-29T13:51:52.059Z,34.09
2023-06-29T13:54:19.837Z,33.49
2023-06-29T13:56:48.006Z,34.03
2023-06-29T13:59:15.736Z,34.26
2023-06-29T14:01:43.474Z,33.48
2023-06-29T14:04:12.800Z,34.44
2023-06-29T14:06:43.897Z,34.15
2023-06-29T14:09:13.133Z,33.05
2023-06-29T14:11:41.171Z,33.22
2023-06-29T14:14:09.493Z,33.61
2023-06-29T14:16:37.341Z,34.00
2023-06-29T14:19:05.267Z,34.05
2023-06-29T14:21:33.203Z,33.03
2023-06-29T14:24:02.269Z,32.67
2023-06-29T14:26:30.190Z,32.66
2023-06-29T14:28:58.254Z,34.21
2023-06-29T14:31:25.951Z,32.39
2023-06-29T14:33:53.820Z,33.33
2023-06-29T14:36:21.537Z,34.04
2023-06-29T14:38:50.505Z,34.31
2023-06-29T14:41:20.792Z,34.30
2023-06-29T14:43:48.799Z,34.45
2023-06-29T14:46:16.485Z,34.81
2023-06-29T14:48:45.559Z,35.63
2023-06-29T14:51:13.679Z,36.20
2023-06-29T14:53:41.652Z,36.30
2023-06-29T14:56:10.927Z,36.43
2023-06-29T14:58:40.409Z,35.74
2023-06-29T15:01:08.212Z,35.62
2023-06-29T15:03:37.140Z,35.01
2023-06-29T15:06:05.265Z,35.00
2023-06-29T15:08:33.228Z,35.52
2023-06-29T15:11:00.935Z,34.80
2023-06-29T15:13:28.807Z,34.62
2023-06-29T15:15:59.265Z,33.53
2023-06-29T15:18:27.069Z,35.72
2023-06-29T15:20:54.760Z,35.44
2023-06-29T15:23:22.454Z,35.55
2023-06-29T15:25:50.267Z,35.69
2023-06-29T15:28:18.278Z,37.12
2023-06-29T15:30:53.237Z,35.66
2023-06-29T15:33:22.861Z,34.49
2023-06-29T15:35:50.566Z,35.37
2023-06-29T15:38:20.818Z,34.06
2023-06-29T15:40:50.085Z,35.25
2023-06-29T15:46:15.566Z,33.63
2023-06-29T15:48:44.830Z,34.36
2023-06-29T15:51:12.788Z,34.80
2023-06-29T15:53:58.625Z,33.91
2023-06-29T15:56:26.383Z,34.48
2023-06-29T15:58:55.646Z,34.21
2023-06-29T16:01:23.528Z,34.75
2023-06-29T16:03:53.307Z,34.16
2023-06-29T16:06:27.166Z,34.67
2023-06-29T16:08:54.947Z,34.90
2023-06-29T16:14:08.035Z,34.86
2023-06-29T16:16:35.835Z,34.94
2023-06-29T16:19:05.046Z,34.80
2023-06-29T16:21:32.725Z,36.00
2023-06-29T16:24:00.436Z,33.90
2023-06-29T16:26:28.124Z,35.57
2023-06-29T16:28:55.844Z,34.41
2023-06-29T16:31:23.664Z,34.06
2023-06-29T16:33:51.451Z,34.42
2023-06-29T16:36:21.065Z,31.82
2023-06-29T16:38:48.729Z,32.16
2023-06-29T16:41:16.598Z,31.01
2023-06-29T16:43:44.257Z,30.30
2023-06-29T16:46:12.191Z,32.68
2023-06-29T16:48:39.962Z,31.58
2023-06-29T16:51:08.023Z,30.98
2023-06-29T16:53:37.291Z,29.75
2023-06-29T16:56:05.332Z,30.37
2023-06-29T16:58:33.008Z,32.11
2023-06-29T17:01:00.716Z,32.92
2023-06-29T17:03:28.921Z,30.48
2023-06-29T17:05:56.741Z,31.25
2023-06-29T17:08:24.987Z,30.70
2023-06-29T17:10:54.285Z,32.91
2023-06-29T17:13:22.007Z,29.65
2023-06-29T17:15:50.079Z,31.80
2023-06-29T17:18:17.959Z,30.39
2023-06-29T17:20:45.704Z,30.52
2023-06-29T17:23:13.486Z,31.17
2023-06-29T17:25:47.185Z,31.39
2023-06-29T17:28:16.714Z,30.63
2023-06-29T17:30:45.223Z,30.31
2023-06-29T17:33:14.336Z,31.25
2023-06-29T17:35:42.424Z,29.90
2023-06-29T17:38:10.876Z,30.17
2023-06-29T17:40:38.661Z,29.60
2023-06-29T17:43:06.737Z,29.58
2023-06-29T17:45:36.473Z,29.64
2023-06-29T17:48:04.427Z,28.91
2023-06-29T17:50:32.192Z,28.49
2023-06-29T17:52:59.837Z,29.26
2023-06-29T17:55:27.596Z,30.31
2023-06-29T17:57:55.324Z,29.79
2023-06-29T18:03:00.104Z,29.26
2023-06-29T18:05:28.090Z,29.18
2023-06-29T18:07:57.010Z,29.52
2023-06-29T18:10:24.885Z,29.61
2023-06-29T18:12:52.602Z,30.22
2023-06-29T18:15:20.465Z,30.32
2023-06-29T18:17:48.380Z,29.02
2023-06-29T18:20:17.854Z,30.42
2023-06-29T18:22:45.638Z,30.03
2023-06-29T18:25:13.493Z,30.24
2023-06-29T18:27:41.344Z,29.06
2023-06-29T18:30:10.379Z,31.83
2023-06-29T18:32:39.396Z,30.67
2023-06-29T18:35:07.715Z,29.41
2023-06-29T18:37:37.630Z,31.49
2023-06-29T18:40:06.162Z,30.44
2023-06-29T18:42:33.920Z,28.70
2023-06-29T18:45:02.062Z,30.85
2023-06-29T18:47:30.099Z,31.12
2023-06-29T18:49:58.660Z,29.34
2023-06-29T18:52:27.283Z,29.75
2023-06-29T18:54:58.157Z,31.99
2023-06-29T18:57:25.843Z,29.97
2023-06-29T18:59:53.891Z,30.87
2023-06-29T19:02:21.635Z,30.03
2023-06-29T19:04:49.549Z,27.51
2023-06-29T19:07:17.828Z,27.90
2023-06-29T19:09:45.787Z,31.16
2023-06-29T19:12:15.086Z,30.49
2023-06-29T19:14:43.392Z,28.77
2023-06-29T19:17:11.185Z,29.28
2023-06-29T19:19:39.300Z,30.51
2023-06-29T19:22:08.483Z,29.98
2023-06-29T19:24:36.250Z,27.32
2023-06-29T19:27:06.669Z,28.20
2023-06-29T19:29:36.835Z,28.82
2023-06-29T19:32:06.357Z,27.90
2023-06-29T19:34:35.619Z,28.10
2023-06-29T19:37:04.146Z,29.00
2023-06-29T19:39:32.469Z,29.50
2023-06-29T19:42:00.342Z,28.83
2023-06-29T19:44:28.044Z,28.97
2023-06-29T19:46:57.147Z,28.26
2023-06-29T19:49:24.944Z,28.85
2023-06-29T19:51:58.265Z,29.63
2023-06-29T19:54:26.393Z,28.13
2023-06-29T19:56:54.199Z,28.33
2023-06-29T19:59:21.957Z,28.05
2023-06-29T20:01:49.675Z,28.55
2023-06-29T20:04:19.412Z,30.17
2023-06-29T20:06:47.360Z,28.56
2023-06-29T20:09:15.103Z,27.62
2023-06-29T20:11:42.828Z,28.32
2023-06-29T20:14:10.670Z,27.75
2023-06-29T20:16:38.598Z,27.45
2023-06-29T20:19:06.878Z,27.58
2023-06-29T20:21:36.014Z,27.70
2023-06-29T20:24:04.241Z,27.41
2023-06-29T20:26:33.281Z,27.76
2023-06-29T20:29:01.138Z,27.13
2023-06-29T20:31:29.124Z,28.05
2023-06-29T20:33:56.897Z,27.61
2023-06-29T20:36:24.604Z,28.41
2023-06-29T20:38:53.841Z,29.28
2023-06-29T20:41:21.839Z,26.86
2023-06-29T20:43:50.296Z,27.10
2023-06-29T20:46:19.201Z,28.18
2023-06-29T20:48:47.213Z,26.36
2023-06-29T20:51:18.127Z,27.66
2023-06-29T20:53:46.592Z,27.61
2023-06-29T20:56:15.738Z,27.45
2023-06-29T20:58:43.506Z,27.04
2023-06-29T21:01:11.350Z,27.93
2023-06-29T21:03:44.889Z,27.35
2023-06-29T21:06:13.306Z,26.46
2023-06-29T21:08:41.434Z,26.52
2023-06-29T21:11:09.505Z,27.49
2023-06-29T21:13:38.960Z,26.43
2023-06-29T21:16:07.394Z,25.63
2023-06-29T21:18:35.685Z,25.96
2023-06-29T21:21:03.858Z,25.27
2023-06-29T21:23:31.816Z,26.05
2023-06-29T21:26:00.028Z,26.33
2023-06-29T21:28:28.141Z,26.65
2023-06-29T21:30:57.954Z,26.88
2023-06-29T21:33:27.123Z,25.55
2023-06-29T21:35:55.153Z,26.30
2023-06-29T21:38:25.698Z,26.41
2023-06-29T21:40:55.901Z,27.21
2023-06-29T21:43:23.620Z,25.22
2023-06-29T21:45:51.434Z,25.58
2023-06-29T21:48:20.587Z,25.69
2023-06-29T21:50:48.322Z,25.45
2023-06-29T21:53:16.159Z,24.98
2023-06-29T21:55:46.258Z,24.76
2023-06-29T21:58:14.961Z,25.16
2023-06-29T22:00:42.706Z,25.58
2023-06-29T22:03:10.679Z,24.95
2023-06-29T22:05:39.851Z,24.84
2023-06-29T22:08:10.627Z,25.31
2023-06-29T22:10:38.403Z,25.34
2023-06-29T22:13:06.232Z,25.17
2023-06-29T22:15:34.465Z,26.57
2023-06-29T22:18:04.548Z,24.21
2023-06-29T22:20:32.446Z,25.25
2023-06-29T22:23:01.578Z,24.56
2023-06-29T22:25:30.017Z,24.39
2023-06-29T22:31:26.836Z,26.29
2023-06-29T22:33:54.855Z,24.88
2023-06-29T22:36:23.206Z,26.31
2023-06-29T22:38:52.374Z,26.04
2023-06-29T22:41:20.880Z,26.26
2023-06-29T22:43:49.122Z,25.38
2023-06-29T22:46:16.873Z,25.69
2023-06-29T22:48:45.144Z,25.98
2023-06-29T22:51:13.180Z,24.75
2023-06-29T22:53:40.995Z,25.56
2023-06-29T22:56:10.122Z,25.28
2023-06-29T22:58:39.129Z,24.46
2023-06-29T23:01:06.857Z,24.24
2023-06-29T23:03:34.708Z,25.02
2023-06-29T23:06:02.596Z,25.84
2023-06-29T23:08:30.607Z,24.53
2023-06-29T23:10:58.299Z,25.57
2023-06-29T23:13:27.814Z,25.19
2023-06-29T23:15:55.765Z,24.46
2023-06-29T23:18:23.521Z,23.84
2023-06-29T23:20:51.246Z,24.62
2023-06-29T23:23:18.995Z,23.70
2023-06-29T23:25:46.896Z,23.43
2023-06-29T23:28:18.565Z,23.79
2023-06-29T23:31:09.283Z,24.50
2023-06-29T23:33:37.067Z,24.75
2023-06-29T23:36:05.204Z,24.84
2023-06-29T23:38:32.958Z,24.02
2023-06-29T23:41:00.971Z,24.17
2023-06-29T23:43:28.922Z,23.04
2023-06-29T23:45:58.140Z,24.08
2023-06-29T23:48:25.891Z,23.53
2023-06-29T23:50:53.823Z,23.38
2023-06-29T23:53:21.533Z,24.45
2023-06-29T23:55:49.293Z,23.72
2023-06-29T23:58:17.262Z,24.18
